sensor_id;sensor_type;location;lat;lon;timestamp;temperature;humidity
67799;SHT30;54596;43.216;27.904;2022-07-29T00:02:00;22.36;80.80
67799;SHT30;54596;43.216;27.904;2022-07-29T00:04:25;22.30;80.99
67799;SHT30;54596;43.216;27.904;2022-07-29T00:06:51;22.26;81.08
67799;SHT30;54596;43.216;27.904;2022-07-29T00:09:16;22.24;80.90
67799;SHT30;54596;43.216;27.904;2022-07-29T00:11:42;22.23;80.81
67799;SHT30;54596;43.216;27.904;2022-07-29T00:14:08;22.23;80.66
67799;SHT30;54596;43.216;27.904;2022-07-29T00:16:33;22.17;80.74
67799;SHT30;54596;43.216;27.904;2022-07-29T00:18:59;22.21;80.49
67799;SHT30;54596;43.216;27.904;2022-07-29T00:21:24;22.26;80.40
67799;SHT30;54596;43.216;27.904;2022-07-29T00:23:50;22.24;80.36
67799;SHT30;54596;43.216;27.904;2022-07-29T00:26:15;22.26;80.31
67799;SHT30;54596;43.216;27.904;2022-07-29T00:28:41;22.20;80.32
67799;SHT30;54596;43.216;27.904;2022-07-29T00:31:06;22.16;80.30
67799;SHT30;54596;43.216;27.904;2022-07-29T00:33:33;22.12;80.36
67799;SHT30;54596;43.216;27.904;2022-07-29T00:35:58;22.13;80.15
67799;SHT30;54596;43.216;27.904;2022-07-29T00:38:24;22.17;79.87
67799;SHT30;54596;43.216;27.904;2022-07-29T00:40:49;22.12;79.73
67799;SHT30;54596;43.216;27.904;2022-07-29T00:43:15;22.06;79.55
67799;SHT30;54596;43.216;27.904;2022-07-29T00:45:42;22.02;79.63
67799;SHT30;54596;43.216;27.904;2022-07-29T00:48:07;21.98;79.72
67799;SHT30;54596;43.216;27.904;2022-07-29T00:50:34;21.96;79.69
67799;SHT30;54596;43.216;27.904;2022-07-29T00:53:01;21.93;79.76
67799;SHT30;54596;43.216;27.904;2022-07-29T00:55:27;21.95;79.73
67799;SHT30;54596;43.216;27.904;2022-07-29T00:57:54;21.95;79.48
67799;SHT30;54596;43.216;27.904;2022-07-29T01:00:24;21.91;79.33
67799;SHT30;54596;43.216;27.904;2022-07-29T01:02:50;21.79;79.12
67799;SHT30;54596;43.216;27.904;2022-07-29T01:05:18;21.77;79.26
67799;SHT30;54596;43.216;27.904;2022-07-29T01:07:44;21.74;79.41
67799;SHT30;54596;43.216;27.904;2022-07-29T01:10:12;21.67;79.69
67799;SHT30;54596;43.216;27.904;2022-07-29T01:12:39;21.68;80.09
67799;SHT30;54596;43.216;27.904;2022-07-29T01:15:06;21.65;80.41
67799;SHT30;54596;43.216;27.904;2022-07-29T01:31:19;21.67;81.53
67799;SHT30;54596;43.216;27.904;2022-07-29T01:33:50;21.57;81.90
67799;SHT30;54596;43.216;27.904;2022-07-29T01:36:29;21.58;81.90
67799;SHT30;54596;43.216;27.904;2022-07-29T01:39:05;21.61;82.29
67799;SHT30;54596;43.216;27.904;2022-07-29T01:41:32;21.62;82.41
67799;SHT30;54596;43.216;27.904;2022-07-29T01:44:05;21.67;82.23
67799;SHT30;54596;43.216;27.904;2022-07-29T01:46:37;21.73;81.98
67799;SHT30;54596;43.216;27.904;2022-07-29T01:49:10;21.69;81.99
67799;SHT30;54596;43.216;27.904;2022-07-29T01:51:49;21.65;81.96
67799;SHT30;54596;43.216;27.904;2022-07-29T01:54:24;21.61;81.82
67799;SHT30;54596;43.216;27.904;2022-07-29T01:56:53;21.58;81.93
67799;SHT30;54596;43.216;27.904;2022-07-29T01:59:20;21.48;81.80
67799;SHT30;54596;43.216;27.904;2022-07-29T02:01:48;21.48;81.59
67799;SHT30;54596;43.216;27.904;2022-07-29T02:04:16;21.47;81.61
67799;SHT30;54596;43.216;27.904;2022-07-29T02:06:44;21.48;81.58
67799;SHT30;54596;43.216;27.904;2022-07-29T02:09:12;21.41;81.89
67799;SHT30;54596;43.216;27.904;2022-07-29T02:11:39;21.41;81.77
67799;SHT30;54596;43.216;27.904;2022-07-29T02:14:06;21.34;81.96
67799;SHT30;54596;43.216;27.904;2022-07-29T02:16:33;21.30;81.86
67799;SHT30;54596;43.216;27.904;2022-07-29T02:19:01;21.31;81.65
67799;SHT30;54596;43.216;27.904;2022-07-29T02:21:27;21.27;81.88
67799;SHT30;54596;43.216;27.904;2022-07-29T02:23:56;21.31;81.95
67799;SHT30;54596;43.216;27.904;2022-07-29T02:26:24;21.27;82.08
67799;SHT30;54596;43.216;27.904;2022-07-29T02:28:54;21.29;82.15
67799;SHT30;54596;43.216;27.904;2022-07-29T02:31:22;21.33;81.81
67799;SHT30;54596;43.216;27.904;2022-07-29T02:33:49;21.36;81.51
67799;SHT30;54596;43.216;27.904;2022-07-29T02:36:15;21.30;81.65
67799;SHT30;54596;43.216;27.904;2022-07-29T02:38:42;21.27;81.73
67799;SHT30;54596;43.216;27.904;2022-07-29T02:41:37;21.19;81.86
67799;SHT30;54596;43.216;27.904;2022-07-29T02:44:18;21.14;81.96
67799;SHT30;54596;43.216;27.904;2022-07-29T02:47:07;21.06;82.25
67799;SHT30;54596;43.216;27.904;2022-07-29T02:49:38;21.13;82.24
67799;SHT30;54596;43.216;27.904;2022-07-29T02:52:30;21.09;82.47
67799;SHT30;54596;43.216;27.904;2022-07-29T02:55:00;21.07;82.36
67799;SHT30;54596;43.216;27.904;2022-07-29T03:00:38;21.03;82.44
67799;SHT30;54596;43.216;27.904;2022-07-29T03:03:09;21.00;82.45
67799;SHT30;54596;43.216;27.904;2022-07-29T03:05:36;21.06;82.25
67799;SHT30;54596;43.216;27.904;2022-07-29T03:08:04;21.13;82.01
67799;SHT30;54596;43.216;27.904;2022-07-29T03:10:30;21.10;81.95
67799;SHT30;54596;43.216;27.904;2022-07-29T03:12:57;21.13;81.97
67799;SHT30;54596;43.216;27.904;2022-07-29T03:15:24;21.09;82.03
67799;SHT30;54596;43.216;27.904;2022-07-29T03:17:50;21.12;82.02
67799;SHT30;54596;43.216;27.904;2022-07-29T03:20:17;21.10;82.02
67799;SHT30;54596;43.216;27.904;2022-07-29T03:22:43;21.14;81.75
67799;SHT30;54596;43.216;27.904;2022-07-29T03:25:13;21.14;81.34
67799;SHT30;54596;43.216;27.904;2022-07-29T03:27:40;21.19;81.12
67799;SHT30;54596;43.216;27.904;2022-07-29T03:30:07;21.26;80.83
67799;SHT30;54596;43.216;27.904;2022-07-29T03:32:33;21.29;80.60
67799;SHT30;54596;43.216;27.904;2022-07-29T03:34:58;21.27;80.42
67799;SHT30;54596;43.216;27.904;2022-07-29T03:37:24;21.33;80.03
67799;SHT30;54596;43.216;27.904;2022-07-29T03:39:51;21.37;79.85
67799;SHT30;54596;43.216;27.904;2022-07-29T03:42:19;21.44;79.55
67799;SHT30;54596;43.216;27.904;2022-07-29T03:44:47;21.50;79.56
67799;SHT30;54596;43.216;27.904;2022-07-29T03:47:15;21.51;79.76
67799;SHT30;54596;43.216;27.904;2022-07-29T03:49:44;21.57;79.86
67799;SHT30;54596;43.216;27.904;2022-07-29T03:52:12;21.59;79.85
67799;SHT30;54596;43.216;27.904;2022-07-29T03:54:38;21.65;79.66
67799;SHT30;54596;43.216;27.904;2022-07-29T03:57:05;21.74;79.51
67799;SHT30;54596;43.216;27.904;2022-07-29T03:59:32;21.74;79.36
67799;SHT30;54596;43.216;27.904;2022-07-29T04:02:00;21.84;79.28
67799;SHT30;54596;43.216;27.904;2022-07-29T04:04:27;21.82;79.23
67799;SHT30;54596;43.216;27.904;2022-07-29T04:06:53;21.89;78.93
67799;SHT30;54596;43.216;27.904;2022-07-29T04:09:18;21.99;78.62
67799;SHT30;54596;43.216;27.904;2022-07-29T04:11:44;21.99;78.54
67799;SHT30;54596;43.216;27.904;2022-07-29T04:14:10;22.06;78.53
67799;SHT30;54596;43.216;27.904;2022-07-29T04:16:35;22.09;78.49
67799;SHT30;54596;43.216;27.904;2022-07-29T04:19:01;22.14;78.57
67799;SHT30;54596;43.216;27.904;2022-07-29T04:21:27;22.19;78.63
67799;SHT30;54596;43.216;27.904;2022-07-29T04:23:52;22.23;78.79
67799;SHT30;54596;43.216;27.904;2022-07-29T04:26:19;22.27;78.78
67799;SHT30;54596;43.216;27.904;2022-07-29T04:28:45;22.33;78.88
67799;SHT30;54596;43.216;27.904;2022-07-29T04:31:11;22.50;78.68
67799;SHT30;54596;43.216;27.904;2022-07-29T04:33:37;22.60;78.56
67799;SHT30;54596;43.216;27.904;2022-07-29T04:36:02;22.67;78.51
67799;SHT30;54596;43.216;27.904;2022-07-29T04:38:28;22.79;78.24
67799;SHT30;54596;43.216;27.904;2022-07-29T04:40:53;22.79;78.16
67799;SHT30;54596;43.216;27.904;2022-07-29T04:43:19;22.88;78.00
67799;SHT30;54596;43.216;27.904;2022-07-29T04:45:44;22.92;77.74
67799;SHT30;54596;43.216;27.904;2022-07-29T04:48:10;22.99;77.60
67799;SHT30;54596;43.216;27.904;2022-07-29T04:50:38;23.07;77.45
67799;SHT30;54596;43.216;27.904;2022-07-29T04:53:04;23.22;77.06
67799;SHT30;54596;43.216;27.904;2022-07-29T04:55:30;23.44;76.38
67799;SHT30;54596;43.216;27.904;2022-07-29T04:57:55;23.51;76.18
67799;SHT30;54596;43.216;27.904;2022-07-29T05:00:21;23.54;76.21
67799;SHT30;54596;43.216;27.904;2022-07-29T05:02:48;23.58;76.10
67799;SHT30;54596;43.216;27.904;2022-07-29T05:05:14;23.69;75.85
67799;SHT30;54596;43.216;27.904;2022-07-29T05:07:40;23.79;75.64
67799;SHT30;54596;43.216;27.904;2022-07-29T05:10:06;23.90;75.46
67799;SHT30;54596;43.216;27.904;2022-07-29T05:12:31;24.01;75.15
67799;SHT30;54596;43.216;27.904;2022-07-29T05:14:57;24.13;74.82
67799;SHT30;54596;43.216;27.904;2022-07-29T05:17:22;24.31;74.38
67799;SHT30;54596;43.216;27.904;2022-07-29T05:19:48;24.47;73.99
67799;SHT30;54596;43.216;27.904;2022-07-29T05:22:15;24.75;73.18
67799;SHT30;54596;43.216;27.904;2022-07-29T05:24:41;24.90;72.61
67799;SHT30;54596;43.216;27.904;2022-07-29T05:27:06;25.15;72.16
67799;SHT30;54596;43.216;27.904;2022-07-29T05:29:32;25.45;71.22
67799;SHT30;54596;43.216;27.904;2022-07-29T05:31:57;25.79;70.34
67799;SHT30;54596;43.216;27.904;2022-07-29T05:34:23;26.49;68.70
67799;SHT30;54596;43.216;27.904;2022-07-29T05:36:50;27.86;65.38
67799;SHT30;54596;43.216;27.904;2022-07-29T05:39:16;29.73;59.59
67799;SHT30;54596;43.216;27.904;2022-07-29T05:41:41;31.96;54.45
67799;SHT30;54596;43.216;27.904;2022-07-29T05:44:07;34.02;49.89
67799;SHT30;54596;43.216;27.904;2022-07-29T05:46:32;35.30;47.06
67799;SHT30;54596;43.216;27.904;2022-07-29T05:48:58;35.55;46.13
67799;SHT30;54596;43.216;27.904;2022-07-29T05:51:23;36.20;44.56
67799;SHT30;54596;43.216;27.904;2022-07-29T05:53:49;36.48;44.10
67799;SHT30;54596;43.216;27.904;2022-07-29T05:56:14;36.78;43.45
67799;SHT30;54596;43.216;27.904;2022-07-29T05:58:40;37.02;42.97
67799;SHT30;54596;43.216;27.904;2022-07-29T06:01:05;37.25;41.90
67799;SHT30;54596;43.216;27.904;2022-07-29T06:03:30;37.77;41.22
67799;SHT30;54596;43.216;27.904;2022-07-29T06:05:56;38.12;40.41
67799;SHT30;54596;43.216;27.904;2022-07-29T06:08:21;38.04;40.42
67799;SHT30;54596;43.216;27.904;2022-07-29T06:10:47;38.25;40.44
67799;SHT30;54596;43.216;27.904;2022-07-29T06:13:13;38.39;40.15
67799;SHT30;54596;43.216;27.904;2022-07-29T06:15:41;39.06;38.92
67799;SHT30;54596;43.216;27.904;2022-07-29T06:18:06;39.20;38.29
67799;SHT30;54596;43.216;27.904;2022-07-29T06:20:34;39.65;37.81
67799;SHT30;54596;43.216;27.904;2022-07-29T06:23:01;39.74;37.54
67799;SHT30;54596;43.216;27.904;2022-07-29T06:25:29;40.33;37.16
67799;SHT30;54596;43.216;27.904;2022-07-29T06:27:55;40.67;36.51
67799;SHT30;54596;43.216;27.904;2022-07-29T06:30:21;40.29;37.03
67799;SHT30;54596;43.216;27.904;2022-07-29T06:32:47;39.75;37.28
67799;SHT30;54596;43.216;27.904;2022-07-29T06:35:12;39.40;37.38
67799;SHT30;54596;43.216;27.904;2022-07-29T06:37:38;39.26;37.40
67799;SHT30;54596;43.216;27.904;2022-07-29T06:40:03;39.57;36.73
67799;SHT30;54596;43.216;27.904;2022-07-29T06:42:48;39.82;35.76
67799;SHT30;54596;43.216;27.904;2022-07-29T06:45:14;40.53;35.12
67799;SHT30;54596;43.216;27.904;2022-07-29T06:47:39;40.74;34.32
67799;SHT30;54596;43.216;27.904;2022-07-29T06:50:05;41.64;32.92
67799;SHT30;54596;43.216;27.904;2022-07-29T06:52:31;42.42;31.86
67799;SHT30;54596;43.216;27.904;2022-07-29T06:54:56;43.32;30.56
67799;SHT30;54596;43.216;27.904;2022-07-29T06:57:22;43.70;29.83
67799;SHT30;54596;43.216;27.904;2022-07-29T06:59:47;43.90;29.97
67799;SHT30;54596;43.216;27.904;2022-07-29T07:02:13;43.73;29.87
67799;SHT30;54596;43.216;27.904;2022-07-29T07:04:39;44.25;28.97
67799;SHT30;54596;43.216;27.904;2022-07-29T07:07:04;44.49;28.39
67799;SHT30;54596;43.216;27.904;2022-07-29T07:09:30;44.62;27.79
67799;SHT30;54596;43.216;27.904;2022-07-29T07:11:55;44.32;28.09
67799;SHT30;54596;43.216;27.904;2022-07-29T07:14:21;44.88;27.78
67799;SHT30;54596;43.216;27.904;2022-07-29T07:16:46;45.12;27.09
67799;SHT30;54596;43.216;27.904;2022-07-29T07:19:11;45.49;27.50
67799;SHT30;54596;43.216;27.904;2022-07-29T07:21:37;43.99;29.38
67799;SHT30;54596;43.216;27.904;2022-07-29T07:24:03;42.61;30.94
67799;SHT30;54596;43.216;27.904;2022-07-29T07:26:28;42.66;30.92
67799;SHT30;54596;43.216;27.904;2022-07-29T07:28:54;42.46;30.99
67799;SHT30;54596;43.216;27.904;2022-07-29T07:31:19;43.54;29.90
67799;SHT30;54596;43.216;27.904;2022-07-29T07:33:45;43.06;30.19
67799;SHT30;54596;43.216;27.904;2022-07-29T07:36:11;43.33;29.60
67799;SHT30;54596;43.216;27.904;2022-07-29T07:38:36;41.90;30.57
67799;SHT30;54596;43.216;27.904;2022-07-29T07:41:02;43.32;29.30
67799;SHT30;54596;43.216;27.904;2022-07-29T07:43:28;44.67;28.05
67799;SHT30;54596;43.216;27.904;2022-07-29T07:45:53;44.35;27.74
67799;SHT30;54596;43.216;27.904;2022-07-29T07:48:19;44.21;27.82
67799;SHT30;54596;43.216;27.904;2022-07-29T07:50:44;43.78;28.46
67799;SHT30;54596;43.216;27.904;2022-07-29T07:53:10;44.43;27.96
67799;SHT30;54596;43.216;27.904;2022-07-29T07:55:42;44.18;28.20
67799;SHT30;54596;43.216;27.904;2022-07-29T07:58:09;42.99;29.39
67799;SHT30;54596;43.216;27.904;2022-07-29T08:00:35;42.82;29.37
67799;SHT30;54596;43.216;27.904;2022-07-29T08:03:01;43.11;28.92
67799;SHT30;54596;43.216;27.904;2022-07-29T08:05:26;42.53;29.51
67799;SHT30;54596;43.216;27.904;2022-07-29T08:07:52;40.56;31.05
67799;SHT30;54596;43.216;27.904;2022-07-29T08:10:19;40.02;30.99
67799;SHT30;54596;43.216;27.904;2022-07-29T08:13:07;39.64;31.83
67799;SHT30;54596;43.216;27.904;2022-07-29T08:15:33;39.16;32.69
67799;SHT30;54596;43.216;27.904;2022-07-29T08:17:59;39.16;32.74
67799;SHT30;54596;43.216;27.904;2022-07-29T08:20:25;37.15;35.33
67799;SHT30;54596;43.216;27.904;2022-07-29T08:22:51;36.16;36.90
67799;SHT30;54596;43.216;27.904;2022-07-29T08:25:18;36.07;37.56
67799;SHT30;54596;43.216;27.904;2022-07-29T08:27:48;35.23;38.45
67799;SHT30;54596;43.216;27.904;2022-07-29T08:30:14;34.41;39.08
67799;SHT30;54596;43.216;27.904;2022-07-29T08:32:39;34.50;38.95
67799;SHT30;54596;43.216;27.904;2022-07-29T08:35:05;34.16;38.91
67799;SHT30;54596;43.216;27.904;2022-07-29T08:37:31;33.73;39.84
67799;SHT30;54596;43.216;27.904;2022-07-29T08:39:56;33.45;40.13
67799;SHT30;54596;43.216;27.904;2022-07-29T08:42:22;33.07;40.19
67799;SHT30;54596;43.216;27.904;2022-07-29T08:44:48;32.99;40.89
67799;SHT30;54596;43.216;27.904;2022-07-29T08:47:15;32.86;41.40
67799;SHT30;54596;43.216;27.904;2022-07-29T08:49:41;33.00;40.60
67799;SHT30;54596;43.216;27.904;2022-07-29T08:52:10;32.72;41.35
67799;SHT30;54596;43.216;27.904;2022-07-29T08:54:36;32.85;40.97
67799;SHT30;54596;43.216;27.904;2022-07-29T08:57:02;32.72;41.48
67799;SHT30;54596;43.216;27.904;2022-07-29T08:59:27;32.31;42.09
67799;SHT30;54596;43.216;27.904;2022-07-29T09:01:56;32.28;41.82
67799;SHT30;54596;43.216;27.904;2022-07-29T09:04:24;32.48;41.57
67799;SHT30;54596;43.216;27.904;2022-07-29T09:06:54;32.61;41.21
67799;SHT30;54596;43.216;27.904;2022-07-29T09:09:22;32.12;41.87
67799;SHT30;54596;43.216;27.904;2022-07-29T09:11:48;31.55;43.37
67799;SHT30;54596;43.216;27.904;2022-07-29T09:14:13;31.49;43.52
67799;SHT30;54596;43.216;27.904;2022-07-29T09:16:50;31.39;43.23
67799;SHT30;54596;43.216;27.904;2022-07-29T09:21:49;31.03;43.79
67799;SHT30;54596;43.216;27.904;2022-07-29T09:27:20;30.51;46.03
67799;SHT30;54596;43.216;27.904;2022-07-29T09:29:47;30.61;45.88
67799;SHT30;54596;43.216;27.904;2022-07-29T09:32:20;30.64;46.13
67799;SHT30;54596;43.216;27.904;2022-07-29T09:34:45;30.45;47.10
67799;SHT30;54596;43.216;27.904;2022-07-29T09:37:11;30.24;49.39
67799;SHT30;54596;43.216;27.904;2022-07-29T09:39:39;30.25;49.80
67799;SHT30;54596;43.216;27.904;2022-07-29T09:42:11;30.35;49.91
67799;SHT30;54596;43.216;27.904;2022-07-29T09:44:48;30.18;51.42
67799;SHT30;54596;43.216;27.904;2022-07-29T09:47:15;30.20;50.31
67799;SHT30;54596;43.216;27.904;2022-07-29T09:49:58;30.10;53.97
67799;SHT30;54596;43.216;27.904;2022-07-29T09:52:25;29.85;54.26
67799;SHT30;54596;43.216;27.904;2022-07-29T09:54:51;29.51;55.21
67799;SHT30;54596;43.216;27.904;2022-07-29T09:57:24;29.83;52.28
67799;SHT30;54596;43.216;27.904;2022-07-29T09:59:57;29.99;52.22
67799;SHT30;54596;43.216;27.904;2022-07-29T10:02:27;29.90;50.40
67799;SHT30;54596;43.216;27.904;2022-07-29T10:04:53;30.02;51.41
67799;SHT30;54596;43.216;27.904;2022-07-29T10:07:18;29.71;50.82
67799;SHT30;54596;43.216;27.904;2022-07-29T10:09:56;29.58;51.85
67799;SHT30;54596;43.216;27.904;2022-07-29T10:12:22;29.75;52.34
67799;SHT30;54596;43.216;27.904;2022-07-29T10:14:48;29.93;51.96
67799;SHT30;54596;43.216;27.904;2022-07-29T10:17:15;29.89;51.71
67799;SHT30;54596;43.216;27.904;2022-07-29T10:19:41;29.72;51.25
67799;SHT30;54596;43.216;27.904;2022-07-29T10:22:08;29.62;52.57
67799;SHT30;54596;43.216;27.904;2022-07-29T10:24:35;29.51;53.01
67799;SHT30;54596;43.216;27.904;2022-07-29T10:27:04;29.35;52.73
67799;SHT30;54596;43.216;27.904;2022-07-29T10:29:30;29.50;53.57
67799;SHT30;54596;43.216;27.904;2022-07-29T10:40:39;29.47;53.66
67799;SHT30;54596;43.216;27.904;2022-07-29T10:43:37;29.61;52.97
67799;SHT30;54596;43.216;27.904;2022-07-29T10:46:04;29.69;52.11
67799;SHT30;54596;43.216;27.904;2022-07-29T10:48:30;29.71;50.58
67799;SHT30;54596;43.216;27.904;2022-07-29T10:51:04;29.68;47.89
67799;SHT30;54596;43.216;27.904;2022-07-29T10:53:52;29.66;50.51
67799;SHT30;54596;43.216;27.904;2022-07-29T10:56:32;29.75;50.14
67799;SHT30;54596;43.216;27.904;2022-07-29T10:59:36;29.89;50.01
67799;SHT30;54596;43.216;27.904;2022-07-29T11:02:01;29.75;49.67
67799;SHT30;54596;43.216;27.904;2022-07-29T11:07:08;29.76;50.50
67799;SHT30;54596;43.216;27.904;2022-07-29T11:09:34;29.72;49.15
67799;SHT30;54596;43.216;27.904;2022-07-29T11:12:00;29.73;51.01
67799;SHT30;54596;43.216;27.904;2022-07-29T11:17:17;29.76;50.97
67799;SHT30;54596;43.216;27.904;2022-07-29T11:19:42;29.61;51.89
67799;SHT30;54596;43.216;27.904;2022-07-29T11:22:10;29.50;52.30
67799;SHT30;54596;43.216;27.904;2022-07-29T11:24:36;29.50;52.08
67799;SHT30;54596;43.216;27.904;2022-07-29T11:27:18;29.72;53.39
67799;SHT30;54596;43.216;27.904;2022-07-29T11:29:50;29.65;50.69
67799;SHT30;54596;43.216;27.904;2022-07-29T11:32:16;29.68;50.50
67799;SHT30;54596;43.216;27.904;2022-07-29T11:34:45;29.59;51.98
67799;SHT30;54596;43.216;27.904;2022-07-29T11:47:46;29.38;50.83
67799;SHT30;54596;43.216;27.904;2022-07-29T11:50:17;29.31;54.29
67799;SHT30;54596;43.216;27.904;2022-07-29T11:52:45;29.45;54.19
67799;SHT30;54596;43.216;27.904;2022-07-29T11:55:20;29.54;53.11
67799;SHT30;54596;43.216;27.904;2022-07-29T11:57:56;29.58;51.22
67799;SHT30;54596;43.216;27.904;2022-07-29T12:00:36;29.63;52.63
67799;SHT30;54596;43.216;27.904;2022-07-29T12:03:06;29.54;52.35
67799;SHT30;54596;43.216;27.904;2022-07-29T12:05:32;29.39;53.56
67799;SHT30;54596;43.216;27.904;2022-07-29T12:08:10;29.28;53.27
67799;SHT30;54596;43.216;27.904;2022-07-29T12:10:36;29.43;53.42
67799;SHT30;54596;43.216;27.904;2022-07-29T12:13:02;29.44;52.69
67799;SHT30;54596;43.216;27.904;2022-07-29T12:15:28;29.57;51.06
67799;SHT30;54596;43.216;27.904;2022-07-29T12:17:53;29.43;52.52
67799;SHT30;54596;43.216;27.904;2022-07-29T12:20:24;29.38;54.34
67799;SHT30;54596;43.216;27.904;2022-07-29T12:22:50;29.23;53.93
67799;SHT30;54596;43.216;27.904;2022-07-29T12:25:16;29.27;55.61
67799;SHT30;54596;43.216;27.904;2022-07-29T12:27:44;29.09;56.11
67799;SHT30;54596;43.216;27.904;2022-07-29T12:30:12;29.13;53.44
67799;SHT30;54596;43.216;27.904;2022-07-29T12:32:47;29.14;52.89
67799;SHT30;54596;43.216;27.904;2022-07-29T12:35:18;29.04;54.41
67799;SHT30;54596;43.216;27.904;2022-07-29T12:37:46;29.10;55.94
67799;SHT30;54596;43.216;27.904;2022-07-29T12:40:15;28.96;57.67
67799;SHT30;54596;43.216;27.904;2022-07-29T12:43:07;28.91;57.60
67799;SHT30;54596;43.216;27.904;2022-07-29T12:45:34;28.89;56.99
67799;SHT30;54596;43.216;27.904;2022-07-29T12:48:00;29.06;56.93
67799;SHT30;54596;43.216;27.904;2022-07-29T12:50:26;29.10;55.42
67799;SHT30;54596;43.216;27.904;2022-07-29T12:52:51;29.13;56.62
67799;SHT30;54596;43.216;27.904;2022-07-29T12:55:44;29.04;56.01
67799;SHT30;54596;43.216;27.904;2022-07-29T12:58:10;28.99;55.21
67799;SHT30;54596;43.216;27.904;2022-07-29T13:00:36;28.99;55.72
67799;SHT30;54596;43.216;27.904;2022-07-29T13:03:01;28.93;55.84
67799;SHT30;54596;43.216;27.904;2022-07-29T13:05:41;28.96;55.99
67799;SHT30;54596;43.216;27.904;2022-07-29T13:08:16;28.92;55.70
67799;SHT30;54596;43.216;27.904;2022-07-29T13:10:43;28.96;54.88
67799;SHT30;54596;43.216;27.904;2022-07-29T13:13:13;28.88;54.31
67799;SHT30;54596;43.216;27.904;2022-07-29T13:15:41;28.93;51.90
67799;SHT30;54596;43.216;27.904;2022-07-29T13:20:52;29.10;50.95
67799;SHT30;54596;43.216;27.904;2022-07-29T13:23:17;29.10;50.41
67799;SHT30;54596;43.216;27.904;2022-07-29T13:25:43;29.11;51.05
67799;SHT30;54596;43.216;27.904;2022-07-29T13:28:08;29.31;53.87
67799;SHT30;54596;43.216;27.904;2022-07-29T13:30:34;29.59;51.88
67799;SHT30;54596;43.216;27.904;2022-07-29T13:32:59;29.43;54.95
67799;SHT30;54596;43.216;27.904;2022-07-29T13:35:25;29.38;58.16
67799;SHT30;54596;43.216;27.904;2022-07-29T13:37:50;29.54;54.96
67799;SHT30;54596;43.216;27.904;2022-07-29T13:40:16;29.35;58.30
67799;SHT30;54596;43.216;27.904;2022-07-29T13:42:42;29.11;58.35
67799;SHT30;54596;43.216;27.904;2022-07-29T13:45:09;28.85;61.75
67799;SHT30;54596;43.216;27.904;2022-07-29T13:47:35;28.76;61.40
67799;SHT30;54596;43.216;27.904;2022-07-29T13:50:03;28.71;61.79
67799;SHT30;54596;43.216;27.904;2022-07-29T13:52:28;28.66;62.14
67799;SHT30;54596;43.216;27.904;2022-07-29T13:54:54;28.64;62.29
67799;SHT30;54596;43.216;27.904;2022-07-29T13:57:20;28.65;62.78
67799;SHT30;54596;43.216;27.904;2022-07-29T13:59:45;28.68;62.54
67799;SHT30;54596;43.216;27.904;2022-07-29T14:02:11;28.66;62.00
67799;SHT30;54596;43.216;27.904;2022-07-29T14:04:37;28.71;60.33
67799;SHT30;54596;43.216;27.904;2022-07-29T14:07:03;28.66;58.84
67799;SHT30;54596;43.216;27.904;2022-07-29T14:09:29;28.68;57.17
67799;SHT30;54596;43.216;27.904;2022-07-29T14:11:55;28.76;57.29
67799;SHT30;54596;43.216;27.904;2022-07-29T14:14:21;28.86;55.23
67799;SHT30;54596;43.216;27.904;2022-07-29T14:16:46;28.75;53.44
67799;SHT30;54596;43.216;27.904;2022-07-29T14:19:12;28.69;53.30
67799;SHT30;54596;43.216;27.904;2022-07-29T14:21:38;28.64;52.73
67799;SHT30;54596;43.216;27.904;2022-07-29T14:24:04;28.61;54.42
67799;SHT30;54596;43.216;27.904;2022-07-29T14:26:30;28.76;55.61
67799;SHT30;54596;43.216;27.904;2022-07-29T14:28:56;28.59;56.44
67799;SHT30;54596;43.216;27.904;2022-07-29T14:31:21;28.51;56.70
67799;SHT30;54596;43.216;27.904;2022-07-29T14:33:47;28.62;57.18
67799;SHT30;54596;43.216;27.904;2022-07-29T14:36:12;28.58;56.79
67799;SHT30;54596;43.216;27.904;2022-07-29T14:38:38;28.49;55.21
67799;SHT30;54596;43.216;27.904;2022-07-29T14:41:05;28.52;53.59
67799;SHT30;54596;43.216;27.904;2022-07-29T14:43:31;28.51;55.78
67799;SHT30;54596;43.216;27.904;2022-07-29T14:45:57;28.47;54.69
67799;SHT30;54596;43.216;27.904;2022-07-29T14:48:23;28.45;54.83
67799;SHT30;54596;43.216;27.904;2022-07-29T14:50:48;28.37;53.02
67799;SHT30;54596;43.216;27.904;2022-07-29T14:53:14;28.27;55.53
67799;SHT30;54596;43.216;27.904;2022-07-29T14:55:40;28.33;55.32
67799;SHT30;54596;43.216;27.904;2022-07-29T14:58:05;28.30;55.95
67799;SHT30;54596;43.216;27.904;2022-07-29T15:00:31;28.25;54.22
67799;SHT30;54596;43.216;27.904;2022-07-29T15:02:59;28.23;56.14
67799;SHT30;54596;43.216;27.904;2022-07-29T15:05:25;28.17;59.59
67799;SHT30;54596;43.216;27.904;2022-07-29T15:07:51;28.09;59.74
67799;SHT30;54596;43.216;27.904;2022-07-29T15:10:16;28.12;59.45
67799;SHT30;54596;43.216;27.904;2022-07-29T15:12:42;28.13;59.46
67799;SHT30;54596;43.216;27.904;2022-07-29T15:15:07;28.07;58.86
67799;SHT30;54596;43.216;27.904;2022-07-29T15:17:33;28.03;59.37
67799;SHT30;54596;43.216;27.904;2022-07-29T15:19:59;27.97;59.16
67799;SHT30;54596;43.216;27.904;2022-07-29T15:22:24;27.93;59.11
67799;SHT30;54596;43.216;27.904;2022-07-29T15:24:50;27.92;60.03
67799;SHT30;54596;43.216;27.904;2022-07-29T15:27:15;27.90;60.90
67799;SHT30;54596;43.216;27.904;2022-07-29T15:29:42;27.82;60.68
67799;SHT30;54596;43.216;27.904;2022-07-29T15:32:07;27.84;61.78
67799;SHT30;54596;43.216;27.904;2022-07-29T15:34:33;27.82;62.05
67799;SHT30;54596;43.216;27.904;2022-07-29T15:36:59;27.81;61.92
67799;SHT30;54596;43.216;27.904;2022-07-29T15:39:24;27.82;62.87
67799;SHT30;54596;43.216;27.904;2022-07-29T15:41:50;27.71;64.83
67799;SHT30;54596;43.216;27.904;2022-07-29T15:44:16;27.72;64.79
67799;SHT30;54596;43.216;27.904;2022-07-29T15:46:41;27.75;64.20
67799;SHT30;54596;43.216;27.904;2022-07-29T15:49:25;27.69;65.59
67799;SHT30;54596;43.216;27.904;2022-07-29T15:51:59;27.71;66.18
67799;SHT30;54596;43.216;27.904;2022-07-29T15:54:26;27.68;66.56
67799;SHT30;54596;43.216;27.904;2022-07-29T15:56:52;27.65;67.30
67799;SHT30;54596;43.216;27.904;2022-07-29T15:59:18;27.59;67.27
67799;SHT30;54596;43.216;27.904;2022-07-29T16:01:44;27.55;67.58
67799;SHT30;54596;43.216;27.904;2022-07-29T16:04:09;27.52;67.57
67799;SHT30;54596;43.216;27.904;2022-07-29T16:06:35;27.48;67.81
67799;SHT30;54596;43.216;27.904;2022-07-29T16:09:00;27.47;68.08